createdAt,value
2019-01-22T00:00:01.260Z,-5.40
2019-01-22T00:02:33.355Z,-5.30
2019-01-22T00:05:04.115Z,-5.30
2019-01-22T00:07:34.924Z,-5.40
2019-01-22T00:10:06.645Z,-5.40
2019-01-22T00:12:37.385Z,-5.40
2019-01-22T00:15:09.618Z,-5.40
2019-01-22T00:17:40.668Z,-5.40
2019-01-22T00:20:11.969Z,-5.40
2019-01-22T00:22:43.491Z,-5.40
2019-01-22T00:25:14.495Z,-5.40
2019-01-22T00:27:45.206Z,-5.50
2019-01-22T00:30:17.232Z,-5.40
2019-01-22T00:32:48.187Z,-5.50
2019-01-22T00:35:18.769Z,-5.60
2019-01-22T00:37:49.295Z,-5.60
2019-01-22T00:40:20.166Z,-5.60
2019-01-22T00:42:50.787Z,-5.60
2019-01-22T00:45:21.355Z,-5.70
2019-01-22T00:47:52.015Z,-5.70
2019-01-22T00:50:23.145Z,-5.70
2019-01-22T00:52:54.019Z,-5.70
2019-01-22T00:55:24.804Z,-5.80
2019-01-22T00:57:55.440Z,-5.80
2019-01-22T01:00:28.965Z,-5.80
2019-01-22T01:02:59.904Z,-5.80
2019-01-22T01:05:31.525Z,-5.80
2019-01-22T01:08:02.356Z,-5.80
2019-01-22T01:10:33.259Z,-5.90
2019-01-22T01:13:04.379Z,-5.90
2019-01-22T01:15:35.361Z,-5.90
2019-01-22T01:18:07.110Z,-5.80
2019-01-22T01:20:37.678Z,-5.80
2019-01-22T01:23:08.426Z,-5.80
2019-01-22T01:25:39.004Z,-5.80
2019-01-22T01:28:09.576Z,-5.80
2019-01-22T01:30:40.509Z,-5.80
2019-01-22T01:33:11.031Z,-5.80
2019-01-22T01:35:41.777Z,-5.90
2019-01-22T01:38:13.478Z,-5.90
2019-01-22T01:40:44.226Z,-5.90
2019-01-22T01:43:14.889Z,-5.90
2019-01-22T01:45:45.494Z,-5.90
2019-01-22T01:48:15.962Z,-6.00
2019-01-22T01:50:46.594Z,-5.90
2019-01-22T01:53:23.660Z,-6.00
2019-01-22T01:55:49.437Z,-6.00
2019-01-22T01:58:19.976Z,-6.10
2019-01-22T02:00:50.484Z,-6.10
2019-01-22T02:03:21.092Z,-6.10
2019-01-22T02:05:51.785Z,-6.10
2019-01-22T02:08:22.423Z,-6.10
2019-01-22T02:10:53.018Z,-6.00
2019-01-22T02:13:36.751Z,-6.00
2019-01-22T02:17:06.573Z,-6.00
2019-01-22T02:20:06.203Z,-6.00
2019-01-22T02:23:30.604Z,-6.00
2019-01-22T02:26:20.269Z,-6.10
2019-01-22T02:29:17.867Z,-6.00
2019-01-22T02:32:38.581Z,-6.20
2019-01-22T02:35:35.113Z,-6.20
2019-01-22T02:38:45.154Z,-6.20
2019-01-22T02:41:29.338Z,-6.20
2019-01-22T02:44:34.940Z,-6.20
2019-01-22T02:47:23.045Z,-6.20
2019-01-22T02:50:46.531Z,-6.30
2019-01-22T02:53:41.190Z,-6.30
2019-01-22T02:56:52.940Z,-6.30
2019-01-22T02:59:59.844Z,-6.50
2019-01-22T03:02:59.576Z,-6.60
2019-01-22T03:06:17.531Z,-6.50
2019-01-22T03:09:18.516Z,-6.50
2019-01-22T03:12:39.058Z,-6.60
2019-01-22T03:15:56.726Z,-6.50
2019-01-22T03:18:52.310Z,-6.50
2019-01-22T03:22:14.509Z,-6.50
2019-01-22T03:25:22.107Z,-6.50
2019-01-22T03:28:26.321Z,-6.50
2019-01-22T03:31:28.980Z,-6.40
2019-01-22T03:34:50.077Z,-6.40
2019-01-22T03:37:38.353Z,-6.40
2019-01-22T03:40:24.637Z,-6.40
2019-01-22T03:43:13.094Z,-6.40
2019-01-22T03:45:53.495Z,-6.50
2019-01-22T03:49:03.157Z,-6.50
2019-01-22T03:51:57.408Z,-6.60
2019-01-22T03:55:05.789Z,-6.60
2019-01-22T03:58:03.286Z,-6.60
2019-01-22T04:00:46.091Z,-6.60
2019-01-22T04:03:19.555Z,-6.60
2019-01-22T04:05:52.583Z,-6.70
2019-01-22T04:08:23.332Z,-6.60
2019-01-22T04:11:07.520Z,-6.60
2019-01-22T04:13:38.460Z,-6.60
2019-01-22T04:16:09.104Z,-6.60
2019-01-22T04:18:39.969Z,-6.60
2019-01-22T04:21:13.981Z,-6.70
2019-01-22T04:24:18.213Z,-6.60
2019-01-22T04:27:27.208Z,-6.70
2019-01-22T04:30:52.968Z,-6.70
2019-01-22T04:34:06.658Z,-6.70
2019-01-22T04:37:06.519Z,-6.70
2019-01-22T04:40:01.598Z,-6.80
2019-01-22T04:42:43.490Z,-6.70
2019-01-22T04:45:42.846Z,-6.80
2019-01-22T04:48:59.555Z,-6.90
2019-01-22T04:51:58.816Z,-6.90
2019-01-22T04:54:37.589Z,-7.00
2019-01-22T04:57:19.861Z,-7.00
2019-01-22T05:00:46.750Z,-7.00
2019-01-22T05:03:41.028Z,-7.00
2019-01-22T05:06:44.997Z,-7.00
2019-01-22T05:10:01.114Z,-7.00
2019-01-22T05:13:03.908Z,-7.00
2019-01-22T05:15:59.196Z,-7.00
2019-01-22T05:19:04.135Z,-7.00
2019-01-22T05:22:20.794Z,-7.10
2019-01-22T05:25:09.659Z,-7.10
2019-01-22T05:28:19.345Z,-7.10
2019-01-22T05:31:26.839Z,-7.00
2019-01-22T05:34:23.405Z,-7.00
2019-01-22T05:37:10.472Z,-7.10
2019-01-22T05:40:02.314Z,-7.20
2019-01-22T05:43:06.162Z,-7.20
2019-01-22T05:46:16.514Z,-7.10
2019-01-22T05:49:33.154Z,-7.10
2019-01-22T05:52:18.912Z,-7.10
2019-01-22T05:55:22.938Z,-7.20
2019-01-22T05:58:48.771Z,-7.20
2019-01-22T06:01:31.419Z,-7.30
2019-01-22T06:04:47.946Z,-7.20
2019-01-22T06:07:45.511Z,-7.30
2019-01-22T06:10:59.096Z,-7.30
2019-01-22T06:14:01.481Z,-7.30
2019-01-22T06:17:21.224Z,-7.30
2019-01-22T06:20:32.425Z,-7.40
2019-01-22T06:23:49.254Z,-7.50
2019-01-22T06:26:45.597Z,-7.50
2019-01-22T06:29:56.446Z,-7.60
2019-01-22T06:33:03.937Z,-7.60
2019-01-22T06:36:03.236Z,-7.60
2019-01-22T06:39:02.242Z,-7.60
2019-01-22T06:42:09.777Z,-7.60
2019-01-22T06:45:10.249Z,-7.60
2019-01-22T06:48:18.503Z,-7.60
2019-01-22T06:51:45.163Z,-7.60
2019-01-22T06:55:02.518Z,-7.60
2019-01-22T06:58:12.087Z,-7.60
2019-01-22T07:01:28.216Z,-7.50
2019-01-22T07:04:41.282Z,-7.40
2019-01-22T07:07:48.199Z,-7.40
2019-01-22T07:10:59.999Z,-7.30
2019-01-22T07:14:18.867Z,-7.40
2019-01-22T07:17:29.242Z,-7.30
2019-01-22T07:20:33.840Z,-7.50
2019-01-22T07:23:44.454Z,-7.50
2019-01-22T07:26:29.311Z,-7.40
2019-01-22T07:29:51.950Z,-7.30
2019-01-22T07:33:16.073Z,-7.20
2019-01-22T07:36:36.420Z,-7.10
2019-01-22T07:39:26.059Z,-7.20
2019-01-22T07:42:31.720Z,-7.10
2019-01-22T07:45:58.752Z,-7.10
2019-01-22T07:48:36.373Z,-7.00
2019-01-22T07:51:49.239Z,-6.80
2019-01-22T07:55:03.393Z,-6.70
2019-01-22T07:58:09.514Z,-6.40
2019-01-22T08:01:15.651Z,-6.10
2019-01-22T08:04:32.212Z,-5.80
2019-01-22T08:07:45.921Z,-5.60
2019-01-22T08:10:48.439Z,-5.50
2019-01-22T08:13:34.619Z,-5.40
2019-01-22T08:16:51.980Z,-5.40
2019-01-22T08:20:08.967Z,-5.40
2019-01-22T08:23:36.160Z,-5.40
2019-01-22T08:26:38.915Z,-5.30
2019-01-22T08:29:44.231Z,-5.20
2019-01-22T08:33:10.998Z,-5.10
2019-01-22T08:36:07.688Z,-5.10
2019-01-22T08:39:10.858Z,-5.10
2019-01-22T08:42:14.300Z,-5.20
2019-01-22T08:45:22.844Z,-5.20
2019-01-22T08:48:31.928Z,-5.30
2019-01-22T08:51:29.306Z,-5.40
2019-01-22T08:54:39.805Z,-5.40
2019-01-22T08:57:27.486Z,-5.40
2019-01-22T09:00:28.309Z,-5.40
2019-01-22T09:03:33.961Z,-5.30
2019-01-22T09:06:28.363Z,-5.30
2019-01-22T09:09:36.518Z,-5.30
2019-01-22T09:12:25.231Z,-5.30
2019-01-22T09:15:35.342Z,-5.20
2019-01-22T09:18:38.795Z,-5.10
2019-01-22T09:21:58.083Z,-5.00
2019-01-22T09:25:05.289Z,-5.00
2019-01-22T09:28:07.905Z,-5.20
2019-01-22T09:31:12.333Z,-5.20
2019-01-22T09:34:27.052Z,-5.50
2019-01-22T09:37:15.043Z,-5.40
2019-01-22T09:39:45.689Z,-5.30
2019-01-22T09:42:16.506Z,-5.20
2019-01-22T09:44:47.397Z,-5.10
2019-01-22T09:47:17.964Z,-5.00
2019-01-22T09:49:48.845Z,-4.90
2019-01-22T09:52:19.582Z,-4.70
2019-01-22T09:54:50.598Z,-4.30
2019-01-22T09:57:21.243Z,-4.00
2019-01-22T09:59:51.862Z,-3.50
2019-01-22T10:02:22.483Z,-3.30
2019-01-22T10:04:53.233Z,-3.40
2019-01-22T10:07:23.857Z,-3.50
2019-01-22T10:09:54.524Z,-3.70
2019-01-22T10:12:25.291Z,-3.80
2019-01-22T10:14:56.152Z,-3.90
2019-01-22T10:17:27.342Z,-3.70
2019-01-22T10:19:58.286Z,-3.30
2019-01-22T10:22:29.197Z,-3.10
2019-01-22T10:25:00.234Z,-3.10
2019-01-22T10:27:30.892Z,-2.90
2019-01-22T10:30:01.941Z,-2.80
2019-01-22T10:32:32.725Z,-2.70
2019-01-22T10:35:03.295Z,-2.60
2019-01-22T10:37:33.847Z,-2.80
2019-01-22T10:40:05.577Z,-2.90
2019-01-22T10:42:36.462Z,-3.10
2019-01-22T10:45:09.583Z,-3.30
2019-01-22T10:47:40.543Z,-3.30
2019-01-22T10:50:11.961Z,-3.50
2019-01-22T10:52:44.438Z,-3.70
2019-01-22T10:55:17.130Z,-3.40
2019-01-22T10:57:48.122Z,-3.40
2019-01-22T11:00:37.283Z,-3.50
2019-01-22T11:03:08.922Z,-3.50
2019-01-22T11:05:42.241Z,-3.50
2019-01-22T11:08:13.043Z,-3.50
2019-01-22T11:10:44.070Z,-3.50
2019-01-22T11:13:15.224Z,-3.40
2019-01-22T11:15:46.041Z,-3.20
2019-01-22T11:18:16.860Z,-3.20
2019-01-22T11:20:47.953Z,-3.40
2019-01-22T11:23:18.882Z,-3.50
2019-01-22T11:25:49.846Z,-3.50
2019-01-22T11:28:20.764Z,-3.60
2019-01-22T11:30:52.182Z,-3.60
2019-01-22T11:33:23.038Z,-3.50
2019-01-22T11:35:54.072Z,-3.60
2019-01-22T11:38:24.940Z,-3.80
2019-01-22T11:40:55.539Z,-3.80
2019-01-22T11:43:26.394Z,-3.80
2019-01-22T11:45:58.180Z,-3.90
2019-01-22T11:48:28.810Z,-3.90
2019-01-22T11:50:59.436Z,-4.00
2019-01-22T11:53:30.269Z,-4.00
2019-01-22T11:56:01.266Z,-4.10
2019-01-22T11:58:32.318Z,-4.10
2019-01-22T12:01:06.162Z,-4.20
2019-01-22T12:03:37.006Z,-4.20
2019-01-22T12:06:07.910Z,-4.20
2019-01-22T12:08:39.574Z,-4.20
2019-01-22T12:11:12.267Z,-4.20
2019-01-22T12:13:43.375Z,-4.20
2019-01-22T12:16:14.147Z,-4.30
2019-01-22T12:18:45.257Z,-4.20
2019-01-22T12:21:15.976Z,-4.20
2019-01-22T12:23:46.889Z,-4.20
2019-01-22T12:26:17.500Z,-4.20
2019-01-22T12:28:49.415Z,-4.10
2019-01-22T12:31:20.632Z,-4.10
2019-01-22T12:33:51.199Z,-4.20
2019-01-22T12:36:23.616Z,-4.10
2019-01-22T12:38:54.423Z,-4.20
2019-01-22T12:41:24.992Z,-4.20
2019-01-22T12:43:55.724Z,-4.30
2019-01-22T12:46:26.596Z,-4.20
2019-01-22T12:48:57.271Z,-4.20
2019-01-22T12:51:28.049Z,-4.10
2019-01-22T12:53:58.728Z,-4.20
2019-01-22T12:56:29.764Z,-4.30
2019-01-22T12:59:02.087Z,-4.40
2019-01-22T13:01:32.962Z,-4.40
2019-01-22T13:04:03.702Z,-4.40
2019-01-22T13:06:34.445Z,-4.40
2019-01-22T13:09:07.587Z,-4.40
2019-01-22T13:11:38.437Z,-4.40
2019-01-22T13:14:09.169Z,-4.50
2019-01-22T13:16:40.027Z,-4.40
2019-01-22T13:19:10.631Z,-4.50
2019-01-22T13:21:41.699Z,-4.50
2019-01-22T13:24:12.416Z,-4.50
2019-01-22T13:26:43.224Z,-4.50
2019-01-22T13:29:13.754Z,-4.60
2019-01-22T13:31:44.586Z,-4.50
2019-01-22T13:34:15.953Z,-4.50
2019-01-22T13:36:46.781Z,-4.50
2019-01-22T13:39:17.484Z,-4.60
2019-01-22T13:41:48.205Z,-4.70
2019-01-22T13:44:18.833Z,-4.90
2019-01-22T13:46:49.923Z,-4.90
2019-01-22T13:49:20.894Z,-4.90
2019-01-22T13:51:51.570Z,-4.90
2019-01-22T13:54:22.323Z,-4.90
2019-01-22T13:56:53.115Z,-4.90
2019-01-22T13:59:23.819Z,-5.10
2019-01-22T14:01:54.401Z,-5.10
2019-01-22T14:04:24.963Z,-5.10
2019-01-22T14:06:55.602Z,-5.20
2019-01-22T14:09:26.545Z,-5.20
2019-01-22T14:11:57.070Z,-5.20
2019-01-22T14:14:27.643Z,-5.20
2019-01-22T14:16:58.446Z,-5.40
2019-01-22T14:19:29.062Z,-5.40
2019-01-22T14:21:59.945Z,-5.60
2019-01-22T14:24:30.997Z,-5.60
2019-01-22T14:27:01.802Z,-5.60
2019-01-22T14:29:32.690Z,-5.60
2019-01-22T14:32:03.441Z,-5.60
2019-01-22T14:34:34.276Z,-5.70
2019-01-22T14:37:04.914Z,-5.70
2019-01-22T14:39:35.659Z,-5.60
2019-01-22T14:42:06.603Z,-5.70
2019-01-22T14:44:37.194Z,-5.60
2019-01-22T14:47:07.934Z,-5.80
2019-01-22T14:49:38.892Z,-5.80
2019-01-22T14:52:09.384Z,-5.90
2019-01-22T14:54:40.197Z,-5.90
2019-01-22T14:57:10.794Z,-5.90
2019-01-22T14:59:43.166Z,-5.80
2019-01-22T15:02:13.788Z,-5.80
2019-01-22T15:04:44.410Z,-5.80
2019-01-22T15:07:15.144Z,-5.80
2019-01-22T15:09:45.951Z,-5.80
2019-01-22T15:12:16.716Z,-5.80
2019-01-22T15:14:47.325Z,-5.70
2019-01-22T15:17:17.910Z,-5.80
2019-01-22T15:19:48.772Z,-5.80
2019-01-22T15:22:19.919Z,-5.90
2019-01-22T15:24:50.511Z,-5.90
2019-01-22T15:27:21.485Z,-5.90
2019-01-22T15:29:53.857Z,-5.90
2019-01-22T15:32:24.313Z,-6.10
2019-01-22T15:34:54.964Z,-6.10
2019-01-22T15:37:25.556Z,-6.10
2019-01-22T15:39:56.544Z,-6.10
2019-01-22T15:42:27.246Z,-6.10
2019-01-22T15:44:57.917Z,-6.10
2019-01-22T15:47:28.699Z,-6.20
2019-01-22T15:49:59.514Z,-6.20
2019-01-22T15:52:30.253Z,-6.20
2019-01-22T15:55:01.446Z,-6.20
2019-01-22T15:57:32.191Z,-6.30
2019-01-22T16:00:03.600Z,-6.30
2019-01-22T16:02:34.333Z,-6.30
2019-01-22T16:05:06.026Z,-6.20
2019-01-22T16:07:36.780Z,-6.20
2019-01-22T16:10:08.870Z,-6.30
2019-01-22T16:12:39.552Z,-6.30
2019-01-22T16:15:13.170Z,-6.40
2019-01-22T16:17:44.030Z,-6.40
2019-01-22T16:20:22.603Z,-6.40
2019-01-22T16:22:53.704Z,-6.40
2019-01-22T16:25:24.677Z,-6.40
2019-01-22T16:27:55.413Z,-6.40
2019-01-22T16:30:27.274Z,-6.30
2019-01-22T16:32:58.296Z,-6.30
2019-01-22T16:35:29.766Z,-6.20
2019-01-22T16:38:00.374Z,-6.20
2019-01-22T16:40:31.207Z,-6.20
2019-01-22T16:43:01.943Z,-6.20
2019-01-22T16:45:35.253Z,-6.20
2019-01-22T16:48:08.183Z,-6.20
2019-01-22T16:50:43.492Z,-6.20
2019-01-22T16:53:19.121Z,-6.20
2019-01-22T16:55:50.010Z,-6.10
2019-01-22T16:58:20.771Z,-6.10
2019-01-22T17:00:51.762Z,-6.00
2019-01-22T17:03:22.595Z,-6.00
2019-01-22T17:05:53.601Z,-6.00
2019-01-22T17:08:24.303Z,-5.90
2019-01-22T17:10:56.361Z,-6.00
2019-01-22T17:13:27.120Z,-6.00
2019-01-22T17:15:58.024Z,-6.00
2019-01-22T17:18:29.101Z,-6.00
2019-01-22T17:20:59.863Z,-6.00
2019-01-22T17:23:30.685Z,-6.00
2019-01-22T17:26:01.612Z,-6.00
2019-01-22T17:28:32.361Z,-6.00
2019-01-22T17:31:08.559Z,-5.90
2019-01-22T17:33:43.533Z,-5.90
2019-01-22T17:36:14.340Z,-5.90
2019-01-22T17:38:45.711Z,-5.90
2019-01-22T17:41:16.434Z,-5.90
2019-01-22T17:43:47.264Z,-5.90
2019-01-22T17:46:18.823Z,-5.80
2019-01-22T17:48:49.388Z,-5.80
2019-01-22T17:51:21.179Z,-5.80
2019-01-22T17:53:52.298Z,-5.90
2019-01-22T17:56:23.029Z,-5.80
2019-01-22T17:58:53.908Z,-5.70
2019-01-22T18:01:24.826Z,-5.70
2019-01-22T18:03:55.516Z,-5.70
2019-01-22T18:06:26.507Z,-5.70
2019-01-22T18:08:57.006Z,-5.70
2019-01-22T18:11:28.357Z,-5.70
2019-01-22T18:13:59.102Z,-5.70
2019-01-22T18:16:29.858Z,-5.70
2019-01-22T18:19:00.791Z,-5.80
2019-01-22T18:21:31.467Z,-5.70
2019-01-22T18:24:02.466Z,-5.60
2019-01-22T18:26:33.429Z,-5.60
2019-01-22T18:29:04.354Z,-5.60
2019-01-22T18:31:35.313Z,-5.50
2019-01-22T18:34:07.377Z,-5.50
2019-01-22T18:36:37.983Z,-5.60
2019-01-22T18:39:09.380Z,-5.70
2019-01-22T18:41:40.046Z,-5.60
2019-01-22T18:44:10.611Z,-5.70
2019-01-22T18:46:41.198Z,-5.50
2019-01-22T18:49:11.678Z,-5.50
2019-01-22T18:51:42.216Z,-5.60
2019-01-22T18:54:13.335Z,-5.50
2019-01-22T18:56:44.054Z,-5.50
2019-01-22T18:59:14.628Z,-5.50
2019-01-22T19:01:45.502Z,-5.60
2019-01-22T19:04:16.192Z,-5.60
2019-01-22T19:06:47.954Z,-5.50
2019-01-22T19:09:18.552Z,-5.40
2019-01-22T19:11:49.447Z,-5.30
2019-01-22T19:14:20.412Z,-5.30
2019-01-22T19:16:51.146Z,-5.30
2019-01-22T19:19:22.466Z,-5.30
2019-01-22T19:21:53.116Z,-5.30
2019-01-22T19:24:23.719Z,-5.20
2019-01-22T19:26:54.435Z,-5.30
2019-01-22T19:29:25.422Z,-5.30
2019-01-22T19:31:57.807Z,-5.30
2019-01-22T19:34:28.598Z,-5.30
2019-01-22T19:36:59.265Z,-5.30
2019-01-22T19:39:30.080Z,-5.40
2019-01-22T19:42:00.689Z,-5.30
2019-01-22T19:44:31.660Z,-5.40
2019-01-22T19:47:02.503Z,-5.40
2019-01-22T19:49:33.678Z,-5.50
2019-01-22T19:52:04.531Z,-5.40
2019-01-22T19:54:35.686Z,-5.40
2019-01-22T19:57:06.427Z,-5.40
2019-01-22T19:59:37.034Z,-5.40
2019-01-22T20:02:08.056Z,-5.40
2019-01-22T20:04:38.689Z,-5.30
2019-01-22T20:07:09.724Z,-5.30
2019-01-22T20:09:40.655Z,-5.40
2019-01-22T20:12:12.372Z,-5.30
2019-01-22T20:14:43.176Z,-5.40
2019-01-22T20:17:14.146Z,-5.50
2019-01-22T20:19:45.745Z,-5.50
2019-01-22T20:22:16.317Z,-5.50
2019-01-22T20:24:47.933Z,-5.50
2019-01-22T20:27:18.800Z,-5.40
2019-01-22T20:29:52.663Z,-5.40
2019-01-22T20:32:23.301Z,-5.30
2019-01-22T20:34:54.154Z,-5.40
2019-01-22T20:37:24.785Z,-5.40
2019-01-22T20:39:55.334Z,-5.40
2019-01-22T20:42:26.057Z,-5.30
2019-01-22T20:44:56.873Z,-5.50
2019-01-22T20:47:27.697Z,-5.60
2019-01-22T20:49:58.345Z,-5.50
2019-01-22T20:52:29.258Z,-5.60
2019-01-22T20:55:00.196Z,-5.60
2019-01-22T20:57:30.883Z,-5.60
2019-01-22T21:00:02.086Z,-5.70
2019-01-22T21:02:32.909Z,-5.70
2019-01-22T21:05:03.780Z,-5.70
2019-01-22T21:07:34.389Z,-5.70
2019-01-22T21:10:06.855Z,-5.70
2019-01-22T21:12:37.974Z,-5.70
2019-01-22T21:15:09.744Z,-5.70
2019-01-22T21:17:40.666Z,-5.80
2019-01-22T21:20:11.813Z,-5.70
2019-01-22T21:22:42.762Z,-5.70
2019-01-22T21:25:14.829Z,-5.60
2019-01-22T21:27:46.865Z,-5.70
2019-01-22T21:30:32.109Z,-5.70
2019-01-22T21:33:03.667Z,-5.60
2019-01-22T21:35:34.429Z,-5.60
2019-01-22T21:38:05.942Z,-5.70
2019-01-22T21:40:36.889Z,-5.70
2019-01-22T21:43:07.917Z,-5.80
2019-01-22T21:45:38.691Z,-5.80
2019-01-22T21:48:09.426Z,-5.80
2019-01-22T21:50:40.202Z,-5.90
2019-01-22T21:53:10.955Z,-5.90
2019-01-22T21:55:41.785Z,-5.90
2019-01-22T21:58:12.395Z,-5.90
2019-01-22T22:00:43.009Z,-5.80
2019-01-22T22:03:13.562Z,-5.80
2019-01-22T22:05:44.390Z,-5.80
2019-01-22T22:08:14.869Z,-5.80
2019-01-22T22:10:45.814Z,-5.80
2019-01-22T22:13:16.569Z,-5.80
2019-01-22T22:15:47.732Z,-5.70
2019-01-22T22:18:19.242Z,-5.80
2019-01-22T22:20:50.448Z,-5.80
2019-01-22T22:23:21.301Z,-5.80
2019-01-22T22:25:51.876Z,-5.80
2019-01-22T22:28:22.707Z,-5.70
2019-01-22T22:30:53.487Z,-5.80
2019-01-22T22:33:24.054Z,-5.90
2019-01-22T22:35:54.914Z,-5.90
2019-01-22T22:38:25.471Z,-5.90
2019-01-22T22:40:56.165Z,-5.70
2019-01-22T22:43:26.710Z,-5.70
2019-01-22T22:45:57.464Z,-5.70
2019-01-22T22:48:28.121Z,-5.70
2019-01-22T22:50:59.392Z,-5.80
2019-01-22T22:53:29.943Z,-5.80
2019-01-22T22:56:00.506Z,-5.70
2019-01-22T22:58:31.180Z,-5.70
2019-01-22T23:01:28.759Z,-5.60
2019-01-22T23:03:59.481Z,-5.60
2019-01-22T23:06:30.200Z,-5.60
2019-01-22T23:09:00.762Z,-5.60
2019-01-22T23:11:33.112Z,-5.60
2019-01-22T23:14:03.587Z,-5.60
2019-01-22T23:16:34.187Z,-5.80
2019-01-22T23:19:04.911Z,-5.80
2019-01-22T23:21:35.625Z,-5.70
2019-01-22T23:24:06.138Z,-5.70
2019-01-22T23:26:36.799Z,-5.70
2019-01-22T23:29:07.427Z,-5.70
2019-01-22T23:31:38.574Z,-5.60
2019-01-22T23:34:09.306Z,-5.60
2019-01-22T23:36:40.275Z,-5.60
2019-01-22T23:39:11.094Z,-5.60
2019-01-22T23:41:41.931Z,-5.60
2019-01-22T23:44:12.620Z,-5.60
2019-01-22T23:46:43.578Z,-5.60
2019-01-22T23:49:14.806Z,-5.60
2019-01-22T23:51:45.715Z,-5.50
2019-01-22T23:54:16.226Z,-5.60
2019-01-22T23:56:46.906Z,-5.50
2019-01-22T23:59:17.799Z,-5.50
